sensor_id;sensor_type;location;lat;lon;timestamp;P1;durP1;ratioP1;P2;durP2;ratioP2
2772;SDS011;1394;47.044;15.744;2022-07-01T00:01:37;24.00;;;21.87;;
2772;SDS011;1394;47.044;15.744;2022-07-01T00:04:05;24.13;;;21.83;;
2772;SDS011;1394;47.044;15.744;2022-07-01T00:06:32;22.53;;;20.40;;
2772;SDS011;1394;47.044;15.744;2022-07-01T00:09:00;23.63;;;21.53;;
2772;SDS011;1394;47.044;15.744;2022-07-01T00:11:27;23.47;;;21.27;;
2772;SDS011;1394;47.044;15.744;2022-07-01T00:13:55;23.40;;;21.40;;
2772;SDS011;1394;47.044;15.744;2022-07-01T00:16:23;23.80;;;21.00;;
2772;SDS011;1394;47.044;15.744;2022-07-01T00:18:52;23.83;;;21.53;;
2772;SDS011;1394;47.044;15.744;2022-07-01T00:21:19;23.83;;;21.43;;
2772;SDS011;1394;47.044;15.744;2022-07-01T00:23:47;22.30;;;20.30;;
2772;SDS011;1394;47.044;15.744;2022-07-01T00:26:14;24.60;;;22.07;;
2772;SDS011;1394;47.044;15.744;2022-07-01T00:28:41;22.80;;;20.60;;
2772;SDS011;1394;47.044;15.744;2022-07-01T00:31:09;20.83;;;19.00;;
2772;SDS011;1394;47.044;15.744;2022-07-01T00:33:36;21.70;;;19.77;;
2772;SDS011;1394;47.044;15.744;2022-07-01T00:36:06;22.70;;;20.73;;
2772;SDS011;1394;47.044;15.744;2022-07-01T00:38:33;20.80;;;19.00;;
2772;SDS011;1394;47.044;15.744;2022-07-01T00:41:01;20.70;;;18.60;;
2772;SDS011;1394;47.044;15.744;2022-07-01T00:43:33;22.13;;;19.90;;
2772;SDS011;1394;47.044;15.744;2022-07-01T00:46:01;22.00;;;19.87;;
2772;SDS011;1394;47.044;15.744;2022-07-01T00:48:30;22.67;;;20.50;;
2772;SDS011;1394;47.044;15.744;2022-07-01T00:50:59;21.63;;;19.60;;
2772;SDS011;1394;47.044;15.744;2022-07-01T00:53:27;23.23;;;20.90;;
2772;SDS011;1394;47.044;15.744;2022-07-01T00:55:55;24.07;;;21.70;;
2772;SDS011;1394;47.044;15.744;2022-07-01T00:58:27;23.90;;;21.60;;
2772;SDS011;1394;47.044;15.744;2022-07-01T01:00:56;26.93;;;24.30;;
2772;SDS011;1394;47.044;15.744;2022-07-01T01:03:23;27.57;;;25.00;;
2772;SDS011;1394;47.044;15.744;2022-07-01T01:05:51;23.83;;;21.70;;
2772;SDS011;1394;47.044;15.744;2022-07-01T01:08:20;24.03;;;21.73;;
2772;SDS011;1394;47.044;15.744;2022-07-01T01:10:48;25.90;;;23.60;;
2772;SDS011;1394;47.044;15.744;2022-07-01T01:13:16;24.20;;;22.00;;
2772;SDS011;1394;47.044;15.744;2022-07-01T01:15:44;23.90;;;21.73;;
2772;SDS011;1394;47.044;15.744;2022-07-01T01:18:11;24.80;;;22.40;;
2772;SDS011;1394;47.044;15.744;2022-07-01T01:20:40;24.60;;;21.70;;
2772;SDS011;1394;47.044;15.744;2022-07-01T01:23:08;26.07;;;23.53;;
2772;SDS011;1394;47.044;15.744;2022-07-01T01:25:35;25.00;;;22.60;;
2772;SDS011;1394;47.044;15.744;2022-07-01T01:28:03;23.67;;;21.57;;
2772;SDS011;1394;47.044;15.744;2022-07-01T01:30:33;22.37;;;20.37;;
2772;SDS011;1394;47.044;15.744;2022-07-01T01:33:01;22.53;;;20.53;;
2772;SDS011;1394;47.044;15.744;2022-07-01T01:35:28;22.70;;;20.50;;
2772;SDS011;1394;47.044;15.744;2022-07-01T01:37:58;22.23;;;20.23;;
2772;SDS011;1394;47.044;15.744;2022-07-01T01:40:25;23.93;;;20.63;;
2772;SDS011;1394;47.044;15.744;2022-07-01T01:42:55;22.70;;;20.70;;
2772;SDS011;1394;47.044;15.744;2022-07-01T01:45:23;22.80;;;20.80;;
2772;SDS011;1394;47.044;15.744;2022-07-01T01:47:51;24.70;;;22.43;;
2772;SDS011;1394;47.044;15.744;2022-07-01T01:50:19;24.27;;;21.67;;
2772;SDS011;1394;47.044;15.744;2022-07-01T01:52:46;23.53;;;21.33;;
2772;SDS011;1394;47.044;15.744;2022-07-01T01:55:15;24.47;;;22.10;;
2772;SDS011;1394;47.044;15.744;2022-07-01T01:57:42;24.17;;;21.87;;
2772;SDS011;1394;47.044;15.744;2022-07-01T02:00:11;23.00;;;20.90;;
2772;SDS011;1394;47.044;15.744;2022-07-01T02:02:39;22.77;;;20.70;;
2772;SDS011;1394;47.044;15.744;2022-07-01T02:05:08;22.67;;;20.57;;
2772;SDS011;1394;47.044;15.744;2022-07-01T02:07:37;23.33;;;21.03;;
2772;SDS011;1394;47.044;15.744;2022-07-01T02:10:08;23.40;;;21.10;;
2772;SDS011;1394;47.044;15.744;2022-07-01T02:12:39;24.83;;;22.63;;
2772;SDS011;1394;47.044;15.744;2022-07-01T02:15:07;23.17;;;21.00;;
2772;SDS011;1394;47.044;15.744;2022-07-01T02:17:34;22.50;;;20.30;;
2772;SDS011;1394;47.044;15.744;2022-07-01T02:20:02;23.17;;;21.07;;
2772;SDS011;1394;47.044;15.744;2022-07-01T02:22:29;22.77;;;20.57;;
2772;SDS011;1394;47.044;15.744;2022-07-01T02:24:57;22.27;;;20.27;;
2772;SDS011;1394;47.044;15.744;2022-07-01T02:27:24;22.73;;;20.77;;
2772;SDS011;1394;47.044;15.744;2022-07-01T02:29:53;21.73;;;19.63;;
2772;SDS011;1394;47.044;15.744;2022-07-01T02:32:20;22.13;;;20.03;;
2772;SDS011;1394;47.044;15.744;2022-07-01T02:34:47;23.57;;;21.33;;
2772;SDS011;1394;47.044;15.744;2022-07-01T02:37:16;21.40;;;19.30;;
2772;SDS011;1394;47.044;15.744;2022-07-01T02:39:43;21.23;;;19.33;;
2772;SDS011;1394;47.044;15.744;2022-07-01T02:42:10;22.00;;;19.80;;
2772;SDS011;1394;47.044;15.744;2022-07-01T02:44:52;21.67;;;19.70;;
2772;SDS011;1394;47.044;15.744;2022-07-01T02:47:20;21.40;;;19.50;;
2772;SDS011;1394;47.044;15.744;2022-07-01T02:49:49;21.97;;;19.97;;
2772;SDS011;1394;47.044;15.744;2022-07-01T02:52:17;22.77;;;19.30;;
2772;SDS011;1394;47.044;15.744;2022-07-01T02:54:44;21.63;;;19.70;;
2772;SDS011;1394;47.044;15.744;2022-07-01T02:57:12;23.67;;;21.47;;
2772;SDS011;1394;47.044;15.744;2022-07-01T02:59:39;28.37;;;20.23;;
2772;SDS011;1394;47.044;15.744;2022-07-01T03:02:07;22.70;;;20.50;;
2772;SDS011;1394;47.044;15.744;2022-07-01T03:04:35;23.60;;;21.40;;
2772;SDS011;1394;47.044;15.744;2022-07-01T03:07:02;22.80;;;20.57;;
2772;SDS011;1394;47.044;15.744;2022-07-01T03:09:29;22.77;;;20.57;;
2772;SDS011;1394;47.044;15.744;2022-07-01T03:11:59;25.27;;;23.00;;
2772;SDS011;1394;47.044;15.744;2022-07-01T03:14:46;25.27;;;22.80;;
2772;SDS011;1394;47.044;15.744;2022-07-01T03:17:15;28.50;;;25.97;;
2772;SDS011;1394;47.044;15.744;2022-07-01T03:19:42;27.20;;;24.80;;
2772;SDS011;1394;47.044;15.744;2022-07-01T03:22:13;25.50;;;23.00;;
2772;SDS011;1394;47.044;15.744;2022-07-01T03:24:44;24.20;;;22.10;;
2772;SDS011;1394;47.044;15.744;2022-07-01T03:27:11;25.10;;;22.80;;
2772;SDS011;1394;47.044;15.744;2022-07-01T03:29:38;25.40;;;23.20;;
2772;SDS011;1394;47.044;15.744;2022-07-01T03:32:06;22.83;;;20.67;;
2772;SDS011;1394;47.044;15.744;2022-07-01T03:34:36;23.57;;;21.37;;
2772;SDS011;1394;47.044;15.744;2022-07-01T03:37:04;22.90;;;20.73;;
2772;SDS011;1394;47.044;15.744;2022-07-01T03:39:32;22.37;;;20.20;;
2772;SDS011;1394;47.044;15.744;2022-07-01T03:42:00;23.30;;;21.10;;
2772;SDS011;1394;47.044;15.744;2022-07-01T03:44:27;23.90;;;21.60;;
2772;SDS011;1394;47.044;15.744;2022-07-01T03:46:54;23.17;;;21.00;;
2772;SDS011;1394;47.044;15.744;2022-07-01T03:49:22;24.73;;;22.33;;
2772;SDS011;1394;47.044;15.744;2022-07-01T03:51:51;22.43;;;20.33;;
2772;SDS011;1394;47.044;15.744;2022-07-01T03:54:18;23.03;;;20.87;;
2772;SDS011;1394;47.044;15.744;2022-07-01T03:57:04;23.40;;;21.20;;
2772;SDS011;1394;47.044;15.744;2022-07-01T03:59:32;23.00;;;20.73;;
2772;SDS011;1394;47.044;15.744;2022-07-01T04:02:01;21.70;;;19.83;;
2772;SDS011;1394;47.044;15.744;2022-07-01T04:04:28;22.67;;;20.37;;
2772;SDS011;1394;47.044;15.744;2022-07-01T04:06:57;23.80;;;21.20;;
2772;SDS011;1394;47.044;15.744;2022-07-01T04:09:24;22.70;;;20.70;;
2772;SDS011;1394;47.044;15.744;2022-07-01T04:11:52;23.90;;;21.67;;
2772;SDS011;1394;47.044;15.744;2022-07-01T04:14:21;24.97;;;22.53;;
2772;SDS011;1394;47.044;15.744;2022-07-01T04:16:49;23.33;;;21.23;;
2772;SDS011;1394;47.044;15.744;2022-07-01T04:19:16;22.90;;;20.90;;
2772;SDS011;1394;47.044;15.744;2022-07-01T04:21:48;23.07;;;20.87;;
2772;SDS011;1394;47.044;15.744;2022-07-01T04:24:34;23.67;;;21.30;;
2772;SDS011;1394;47.044;15.744;2022-07-01T04:27:01;25.80;;;23.30;;
2772;SDS011;1394;47.044;15.744;2022-07-01T04:29:28;22.83;;;20.87;;
2772;SDS011;1394;47.044;15.744;2022-07-01T04:31:56;25.30;;;23.03;;
2772;SDS011;1394;47.044;15.744;2022-07-01T04:34:23;25.47;;;23.00;;
2772;SDS011;1394;47.044;15.744;2022-07-01T04:36:51;25.53;;;23.13;;
2772;SDS011;1394;47.044;15.744;2022-07-01T04:39:19;25.43;;;22.93;;
2772;SDS011;1394;47.044;15.744;2022-07-01T04:41:48;26.33;;;23.80;;
2772;SDS011;1394;47.044;15.744;2022-07-01T04:44:28;26.30;;;23.67;;
2772;SDS011;1394;47.044;15.744;2022-07-01T04:46:56;26.53;;;23.90;;
2772;SDS011;1394;47.044;15.744;2022-07-01T04:49:23;29.80;;;27.10;;
2772;SDS011;1394;47.044;15.744;2022-07-01T04:51:51;26.10;;;23.57;;
2772;SDS011;1394;47.044;15.744;2022-07-01T04:54:19;24.70;;;22.60;;
2772;SDS011;1394;47.044;15.744;2022-07-01T04:56:48;26.93;;;24.20;;
2772;SDS011;1394;47.044;15.744;2022-07-01T04:59:16;25.87;;;23.67;;
2772;SDS011;1394;47.044;15.744;2022-07-01T05:01:44;26.90;;;24.57;;
2772;SDS011;1394;47.044;15.744;2022-07-01T05:04:14;25.27;;;21.53;;
2772;SDS011;1394;47.044;15.744;2022-07-01T05:06:41;26.47;;;23.87;;
2772;SDS011;1394;47.044;15.744;2022-07-01T05:09:08;26.83;;;24.43;;
2772;SDS011;1394;47.044;15.744;2022-07-01T05:11:39;24.10;;;21.90;;
2772;SDS011;1394;47.044;15.744;2022-07-01T05:14:07;26.07;;;23.70;;
2772;SDS011;1394;47.044;15.744;2022-07-01T05:16:35;24.77;;;22.57;;
2772;SDS011;1394;47.044;15.744;2022-07-01T05:19:02;25.27;;;22.77;;
2772;SDS011;1394;47.044;15.744;2022-07-01T05:21:47;25.37;;;23.17;;
2772;SDS011;1394;47.044;15.744;2022-07-01T05:24:26;29.10;;;24.67;;
2772;SDS011;1394;47.044;15.744;2022-07-01T05:26:55;25.03;;;22.60;;
2772;SDS011;1394;47.044;15.744;2022-07-01T05:29:24;27.80;;;24.23;;
2772;SDS011;1394;47.044;15.744;2022-07-01T05:31:52;27.90;;;25.30;;
2772;SDS011;1394;47.044;15.744;2022-07-01T05:34:19;28.00;;;25.20;;
2772;SDS011;1394;47.044;15.744;2022-07-01T05:36:47;28.63;;;25.60;;
2772;SDS011;1394;47.044;15.744;2022-07-01T05:39:14;26.57;;;23.87;;
2772;SDS011;1394;47.044;15.744;2022-07-01T05:41:42;28.63;;;25.63;;
2772;SDS011;1394;47.044;15.744;2022-07-01T05:44:09;27.10;;;24.53;;
2772;SDS011;1394;47.044;15.744;2022-07-01T05:46:38;28.20;;;25.47;;
2772;SDS011;1394;47.044;15.744;2022-07-01T05:49:05;25.23;;;22.80;;
2772;SDS011;1394;47.044;15.744;2022-07-01T05:51:32;25.83;;;23.30;;
2772;SDS011;1394;47.044;15.744;2022-07-01T05:54:00;22.43;;;20.43;;
2772;SDS011;1394;47.044;15.744;2022-07-01T05:56:28;24.03;;;21.70;;
2772;SDS011;1394;47.044;15.744;2022-07-01T05:58:55;24.23;;;21.67;;
2772;SDS011;1394;47.044;15.744;2022-07-01T06:01:23;23.93;;;21.50;;
2772;SDS011;1394;47.044;15.744;2022-07-01T06:03:52;23.27;;;21.23;;
2772;SDS011;1394;47.044;15.744;2022-07-01T06:06:19;22.97;;;20.87;;
2772;SDS011;1394;47.044;15.744;2022-07-01T06:08:46;23.80;;;21.80;;
2772;SDS011;1394;47.044;15.744;2022-07-01T06:11:14;22.37;;;20.40;;
2772;SDS011;1394;47.044;15.744;2022-07-01T06:13:41;26.40;;;24.00;;
2772;SDS011;1394;47.044;15.744;2022-07-01T06:16:08;24.27;;;21.77;;
2772;SDS011;1394;47.044;15.744;2022-07-01T06:18:36;22.57;;;20.53;;
2772;SDS011;1394;47.044;15.744;2022-07-01T06:21:04;24.13;;;21.90;;
2772;SDS011;1394;47.044;15.744;2022-07-01T06:23:32;21.87;;;19.67;;
2772;SDS011;1394;47.044;15.744;2022-07-01T06:26:00;25.07;;;22.00;;
2772;SDS011;1394;47.044;15.744;2022-07-01T06:28:27;22.87;;;20.77;;
2772;SDS011;1394;47.044;15.744;2022-07-01T06:30:56;23.87;;;21.53;;
2772;SDS011;1394;47.044;15.744;2022-07-01T06:33:24;21.90;;;20.00;;
2772;SDS011;1394;47.044;15.744;2022-07-01T06:35:55;21.77;;;19.73;;
2772;SDS011;1394;47.044;15.744;2022-07-01T06:38:24;21.57;;;19.33;;
2772;SDS011;1394;47.044;15.744;2022-07-01T06:40:51;20.60;;;19.00;;
2772;SDS011;1394;47.044;15.744;2022-07-01T06:43:36;21.30;;;19.33;;
2772;SDS011;1394;47.044;15.744;2022-07-01T06:46:04;21.63;;;19.30;;
2772;SDS011;1394;47.044;15.744;2022-07-01T06:48:31;22.03;;;18.93;;
2772;SDS011;1394;47.044;15.744;2022-07-01T06:50:59;21.40;;;19.60;;
2772;SDS011;1394;47.044;15.744;2022-07-01T06:53:28;21.30;;;19.37;;
2772;SDS011;1394;47.044;15.744;2022-07-01T06:55:56;27.00;;;21.07;;
2772;SDS011;1394;47.044;15.744;2022-07-01T06:58:23;20.10;;;18.40;;
2772;SDS011;1394;47.044;15.744;2022-07-01T07:00:51;23.83;;;19.70;;
2772;SDS011;1394;47.044;15.744;2022-07-01T07:03:18;22.50;;;20.30;;
2772;SDS011;1394;47.044;15.744;2022-07-01T07:05:45;21.40;;;19.47;;
2772;SDS011;1394;47.044;15.744;2022-07-01T07:08:12;21.90;;;20.00;;
2772;SDS011;1394;47.044;15.744;2022-07-01T07:10:42;20.63;;;18.90;;
2772;SDS011;1394;47.044;15.744;2022-07-01T07:13:09;22.00;;;19.87;;
2772;SDS011;1394;47.044;15.744;2022-07-01T07:15:36;35.13;;;20.70;;
2772;SDS011;1394;47.044;15.744;2022-07-01T07:18:06;20.33;;;18.63;;
2772;SDS011;1394;47.044;15.744;2022-07-01T07:20:33;21.60;;;19.73;;
2772;SDS011;1394;47.044;15.744;2022-07-01T07:23:01;22.70;;;20.30;;
2772;SDS011;1394;47.044;15.744;2022-07-01T07:25:28;21.43;;;19.53;;
2772;SDS011;1394;47.044;15.744;2022-07-01T07:27:57;19.77;;;17.77;;
2772;SDS011;1394;47.044;15.744;2022-07-01T07:30:27;20.90;;;19.00;;
2772;SDS011;1394;47.044;15.744;2022-07-01T07:32:54;21.07;;;19.10;;
2772;SDS011;1394;47.044;15.744;2022-07-01T07:35:22;19.90;;;18.00;;
2772;SDS011;1394;47.044;15.744;2022-07-01T07:37:49;21.37;;;18.83;;
2772;SDS011;1394;47.044;15.744;2022-07-01T07:40:20;19.80;;;18.03;;
2772;SDS011;1394;47.044;15.744;2022-07-01T07:42:48;19.80;;;18.10;;
2772;SDS011;1394;47.044;15.744;2022-07-01T07:45:17;22.53;;;17.07;;
2772;SDS011;1394;47.044;15.744;2022-07-01T07:47:45;20.37;;;18.33;;
2772;SDS011;1394;47.044;15.744;2022-07-01T07:50:13;17.60;;;16.03;;
2772;SDS011;1394;47.044;15.744;2022-07-01T07:52:41;17.93;;;16.03;;
2772;SDS011;1394;47.044;15.744;2022-07-01T07:55:08;19.83;;;17.73;;
2772;SDS011;1394;47.044;15.744;2022-07-01T07:57:37;18.97;;;16.77;;
2772;SDS011;1394;47.044;15.744;2022-07-01T08:00:05;18.00;;;16.30;;
2772;SDS011;1394;47.044;15.744;2022-07-01T08:02:34;20.17;;;18.37;;
2772;SDS011;1394;47.044;15.744;2022-07-01T08:05:02;18.80;;;16.90;;
2772;SDS011;1394;47.044;15.744;2022-07-01T08:07:29;19.20;;;17.50;;
2772;SDS011;1394;47.044;15.744;2022-07-01T08:09:56;18.70;;;16.83;;
2772;SDS011;1394;47.044;15.744;2022-07-01T08:12:23;17.90;;;16.30;;
2772;SDS011;1394;47.044;15.744;2022-07-01T08:14:51;18.80;;;17.03;;
2772;SDS011;1394;47.044;15.744;2022-07-01T08:17:18;16.90;;;15.10;;
2772;SDS011;1394;47.044;15.744;2022-07-01T08:19:47;19.50;;;17.50;;
2772;SDS011;1394;47.044;15.744;2022-07-01T08:22:14;18.13;;;16.40;;
2772;SDS011;1394;47.044;15.744;2022-07-01T08:24:42;16.97;;;15.30;;
2772;SDS011;1394;47.044;15.744;2022-07-01T08:27:10;17.97;;;15.70;;
2772;SDS011;1394;47.044;15.744;2022-07-01T08:29:38;16.47;;;14.90;;
2772;SDS011;1394;47.044;15.744;2022-07-01T08:32:06;18.03;;;16.20;;
2772;SDS011;1394;47.044;15.744;2022-07-01T08:34:34;17.53;;;15.73;;
2772;SDS011;1394;47.044;15.744;2022-07-01T08:37:03;15.97;;;14.53;;
2772;SDS011;1394;47.044;15.744;2022-07-01T08:39:30;17.83;;;14.57;;
2772;SDS011;1394;47.044;15.744;2022-07-01T08:41:58;17.90;;;13.57;;
2772;SDS011;1394;47.044;15.744;2022-07-01T08:44:25;15.80;;;13.30;;
2772;SDS011;1394;47.044;15.744;2022-07-01T08:46:53;13.13;;;11.93;;
2772;SDS011;1394;47.044;15.744;2022-07-01T08:49:20;58.37;;;16.80;;
2772;SDS011;1394;47.044;15.744;2022-07-01T08:51:48;14.20;;;12.30;;
2772;SDS011;1394;47.044;15.744;2022-07-01T08:54:17;18.53;;;12.37;;
2772;SDS011;1394;47.044;15.744;2022-07-01T08:56:44;16.73;;;11.50;;
2772;SDS011;1394;47.044;15.744;2022-07-01T08:59:12;14.23;;;12.00;;
2772;SDS011;1394;47.044;15.744;2022-07-01T09:01:43;35.23;;;14.30;;
2772;SDS011;1394;47.044;15.744;2022-07-01T09:04:14;16.77;;;13.90;;
2772;SDS011;1394;47.044;15.744;2022-07-01T09:06:43;14.70;;;13.20;;
2772;SDS011;1394;47.044;15.744;2022-07-01T09:09:12;20.33;;;13.80;;
2772;SDS011;1394;47.044;15.744;2022-07-01T09:11:44;20.57;;;13.90;;
2772;SDS011;1394;47.044;15.744;2022-07-01T09:14:12;16.63;;;12.60;;
2772;SDS011;1394;47.044;15.744;2022-07-01T09:16:40;13.20;;;11.90;;
2772;SDS011;1394;47.044;15.744;2022-07-01T09:19:08;19.87;;;13.07;;
2772;SDS011;1394;47.044;15.744;2022-07-01T09:21:36;18.00;;;13.00;;
2772;SDS011;1394;47.044;15.744;2022-07-01T09:24:04;15.80;;;12.93;;
2772;SDS011;1394;47.044;15.744;2022-07-01T09:26:31;14.20;;;12.00;;
2772;SDS011;1394;47.044;15.744;2022-07-01T09:29:01;14.53;;;12.60;;
2772;SDS011;1394;47.044;15.744;2022-07-01T09:31:30;25.80;;;12.90;;
2772;SDS011;1394;47.044;15.744;2022-07-01T09:34:03;13.60;;;12.23;;
2772;SDS011;1394;47.044;15.744;2022-07-01T09:36:30;17.43;;;13.03;;
2772;SDS011;1394;47.044;15.744;2022-07-01T09:39:02;15.57;;;11.77;;
2772;SDS011;1394;47.044;15.744;2022-07-01T09:41:34;14.90;;;12.83;;
2772;SDS011;1394;47.044;15.744;2022-07-01T09:44:05;15.20;;;13.17;;
2772;SDS011;1394;47.044;15.744;2022-07-01T09:46:35;18.43;;;12.73;;
2772;SDS011;1394;47.044;15.744;2022-07-01T09:49:03;24.33;;;13.07;;
2772;SDS011;1394;47.044;15.744;2022-07-01T09:51:30;13.17;;;11.70;;
2772;SDS011;1394;47.044;15.744;2022-07-01T09:53:57;14.73;;;11.77;;
2772;SDS011;1394;47.044;15.744;2022-07-01T09:56:25;12.33;;;10.33;;
2772;SDS011;1394;47.044;15.744;2022-07-01T09:58:52;17.73;;;11.20;;
2772;SDS011;1394;47.044;15.744;2022-07-01T10:01:21;11.40;;;8.87;;
2772;SDS011;1394;47.044;15.744;2022-07-01T10:03:50;13.57;;;9.90;;
2772;SDS011;1394;47.044;15.744;2022-07-01T10:09:03;12.07;;;9.67;;
2772;SDS011;1394;47.044;15.744;2022-07-01T10:11:46;20.53;;;10.50;;
2772;SDS011;1394;47.044;15.744;2022-07-01T10:14:18;35.73;;;12.93;;
2772;SDS011;1394;47.044;15.744;2022-07-01T10:16:48;14.13;;;9.20;;
2772;SDS011;1394;47.044;15.744;2022-07-01T10:19:25;10.73;;;8.70;;
2772;SDS011;1394;47.044;15.744;2022-07-01T10:21:52;13.43;;;9.10;;
2772;SDS011;1394;47.044;15.744;2022-07-01T10:24:23;11.20;;;8.33;;
2772;SDS011;1394;47.044;15.744;2022-07-01T10:26:51;15.40;;;8.80;;
2772;SDS011;1394;47.044;15.744;2022-07-01T10:29:34;11.30;;;7.70;;
2772;SDS011;1394;47.044;15.744;2022-07-01T10:34:46;16.83;;;8.83;;
2772;SDS011;1394;47.044;15.744;2022-07-01T10:37:14;10.33;;;7.23;;
2772;SDS011;1394;47.044;15.744;2022-07-01T10:39:56;9.40;;;6.87;;
2772;SDS011;1394;47.044;15.744;2022-07-01T10:42:27;8.37;;;7.57;;
2772;SDS011;1394;47.044;15.744;2022-07-01T10:45:02;9.27;;;8.00;;
2772;SDS011;1394;47.044;15.744;2022-07-01T10:47:33;8.97;;;7.00;;
2772;SDS011;1394;47.044;15.744;2022-07-01T10:50:08;11.90;;;7.83;;
2772;SDS011;1394;47.044;15.744;2022-07-01T10:52:36;10.77;;;7.17;;
2772;SDS011;1394;47.044;15.744;2022-07-01T10:55:04;10.23;;;6.57;;
2772;SDS011;1394;47.044;15.744;2022-07-01T10:57:33;8.17;;;6.20;;
2772;SDS011;1394;47.044;15.744;2022-07-01T11:03:01;12.37;;;6.70;;
2772;SDS011;1394;47.044;15.744;2022-07-01T11:05:31;10.70;;;6.47;;
2772;SDS011;1394;47.044;15.744;2022-07-01T11:07:59;11.90;;;5.17;;
2772;SDS011;1394;47.044;15.744;2022-07-01T11:10:26;9.20;;;4.60;;
2772;SDS011;1394;47.044;15.744;2022-07-01T11:12:53;8.18;;;5.57;;
2772;SDS011;1394;47.044;15.744;2022-07-01T11:15:21;7.20;;;5.40;;
2772;SDS011;1394;47.044;15.744;2022-07-01T11:17:49;9.67;;;4.43;;
2772;SDS011;1394;47.044;15.744;2022-07-01T11:20:21;8.33;;;5.50;;
2772;SDS011;1394;47.044;15.744;2022-07-01T11:22:48;8.73;;;5.40;;
2772;SDS011;1394;47.044;15.744;2022-07-01T11:25:16;10.20;;;5.30;;
2772;SDS011;1394;47.044;15.744;2022-07-01T11:27:45;9.13;;;4.67;;
2772;SDS011;1394;47.044;15.744;2022-07-01T11:30:12;7.57;;;4.70;;
2772;SDS011;1394;47.044;15.744;2022-07-01T11:32:41;5.80;;;4.32;;
2772;SDS011;1394;47.044;15.744;2022-07-01T11:35:10;6.80;;;4.13;;
2772;SDS011;1394;47.044;15.744;2022-07-01T11:38:04;14.93;;;5.07;;
2772;SDS011;1394;47.044;15.744;2022-07-01T11:40:49;12.50;;;5.25;;
2772;SDS011;1394;47.044;15.744;2022-07-01T11:43:20;9.50;;;4.28;;
2772;SDS011;1394;47.044;15.744;2022-07-01T11:45:48;6.97;;;4.50;;
2772;SDS011;1394;47.044;15.744;2022-07-01T11:48:28;7.10;;;4.60;;
2772;SDS011;1394;47.044;15.744;2022-07-01T11:50:59;8.30;;;5.07;;
2772;SDS011;1394;47.044;15.744;2022-07-01T11:53:28;9.85;;;4.65;;
2772;SDS011;1394;47.044;15.744;2022-07-01T11:55:55;8.50;;;4.35;;
2772;SDS011;1394;47.044;15.744;2022-07-01T11:58:48;7.97;;;5.18;;
2772;SDS011;1394;47.044;15.744;2022-07-01T12:04:03;4.80;;;3.63;;
2772;SDS011;1394;47.044;15.744;2022-07-01T12:06:31;6.07;;;3.28;;
2772;SDS011;1394;47.044;15.744;2022-07-01T12:09:01;7.45;;;3.88;;
2772;SDS011;1394;47.044;15.744;2022-07-01T12:11:29;5.72;;;3.60;;
2772;SDS011;1394;47.044;15.744;2022-07-01T12:13:57;8.65;;;3.78;;
2772;SDS011;1394;47.044;15.744;2022-07-01T12:16:24;5.65;;;3.17;;
2772;SDS011;1394;47.044;15.744;2022-07-01T12:18:52;5.00;;;3.33;;
2772;SDS011;1394;47.044;15.744;2022-07-01T12:21:20;8.15;;;3.63;;
2772;SDS011;1394;47.044;15.744;2022-07-01T12:24:09;6.78;;;3.72;;
2772;SDS011;1394;47.044;15.744;2022-07-01T12:26:45;7.22;;;3.90;;
2772;SDS011;1394;47.044;15.744;2022-07-01T12:29:13;6.72;;;3.83;;
2772;SDS011;1394;47.044;15.744;2022-07-01T12:31:40;11.95;;;4.78;;
2772;SDS011;1394;47.044;15.744;2022-07-01T12:34:08;7.68;;;3.33;;
2772;SDS011;1394;47.044;15.744;2022-07-01T12:36:35;12.50;;;4.18;;
2772;SDS011;1394;47.044;15.744;2022-07-01T12:39:03;13.25;;;4.20;;
2772;SDS011;1394;47.044;15.744;2022-07-01T12:41:33;5.47;;;3.70;;
2772;SDS011;1394;47.044;15.744;2022-07-01T12:44:01;7.50;;;3.67;;
2772;SDS011;1394;47.044;15.744;2022-07-01T12:46:33;5.22;;;3.35;;
2772;SDS011;1394;47.044;15.744;2022-07-01T12:49:00;8.25;;;3.72;;
2772;SDS011;1394;47.044;15.744;2022-07-01T12:51:30;4.22;;;3.20;;
2772;SDS011;1394;47.044;15.744;2022-07-01T12:53:58;8.27;;;4.15;;
2772;SDS011;1394;47.044;15.744;2022-07-01T12:56:26;5.32;;;3.17;;
2772;SDS011;1394;47.044;15.744;2022-07-01T12:58:55;7.28;;;3.78;;
2772;SDS011;1394;47.044;15.744;2022-07-01T13:01:24;7.20;;;3.90;;
2772;SDS011;1394;47.044;15.744;2022-07-01T13:03:52;7.45;;;3.25;;
2772;SDS011;1394;47.044;15.744;2022-07-01T13:06:19;5.43;;;3.63;;
2772;SDS011;1394;47.044;15.744;2022-07-01T13:08:47;7.07;;;3.20;;
2772;SDS011;1394;47.044;15.744;2022-07-01T13:11:14;6.68;;;3.47;;
2772;SDS011;1394;47.044;15.744;2022-07-01T13:13:41;4.43;;;3.17;;
2772;SDS011;1394;47.044;15.744;2022-07-01T13:16:10;7.68;;;3.00;;
2772;SDS011;1394;47.044;15.744;2022-07-01T13:18:37;4.53;;;3.03;;
2772;SDS011;1394;47.044;15.744;2022-07-01T13:21:04;12.32;;;3.50;;
2772;SDS011;1394;47.044;15.744;2022-07-01T13:23:32;7.55;;;3.60;;
2772;SDS011;1394;47.044;15.744;2022-07-01T13:25:59;9.20;;;3.97;;
2772;SDS011;1394;47.044;15.744;2022-07-01T13:28:26;5.85;;;3.80;;
2772;SDS011;1394;47.044;15.744;2022-07-01T13:30:54;11.75;;;4.07;;
2772;SDS011;1394;47.044;15.744;2022-07-01T13:33:22;8.15;;;3.95;;
2772;SDS011;1394;47.044;15.744;2022-07-01T13:35:49;7.47;;;3.63;;
2772;SDS011;1394;47.044;15.744;2022-07-01T13:38:17;6.90;;;3.40;;
2772;SDS011;1394;47.044;15.744;2022-07-01T13:40:44;10.68;;;3.78;;
2772;SDS011;1394;47.044;15.744;2022-07-01T13:43:11;7.35;;;4.28;;
2772;SDS011;1394;47.044;15.744;2022-07-01T13:45:41;4.65;;;3.25;;
2772;SDS011;1394;47.044;15.744;2022-07-01T13:48:08;5.60;;;3.35;;
2772;SDS011;1394;47.044;15.744;2022-07-01T13:50:37;7.32;;;4.30;;
2772;SDS011;1394;47.044;15.744;2022-07-01T13:53:05;4.90;;;3.60;;
2772;SDS011;1394;47.044;15.744;2022-07-01T13:55:32;6.70;;;3.78;;
2772;SDS011;1394;47.044;15.744;2022-07-01T13:58:03;8.75;;;3.60;;
2772;SDS011;1394;47.044;15.744;2022-07-01T14:00:30;5.53;;;3.63;;
2772;SDS011;1394;47.044;15.744;2022-07-01T14:02:57;6.88;;;3.70;;
2772;SDS011;1394;47.044;15.744;2022-07-01T14:05:24;7.13;;;3.92;;
2772;SDS011;1394;47.044;15.744;2022-07-01T14:07:53;5.60;;;3.17;;
2772;SDS011;1394;47.044;15.744;2022-07-01T14:10:20;6.97;;;3.70;;
2772;SDS011;1394;47.044;15.744;2022-07-01T14:12:48;7.43;;;3.50;;
2772;SDS011;1394;47.044;15.744;2022-07-01T14:15:15;4.57;;;3.20;;
2772;SDS011;1394;47.044;15.744;2022-07-01T14:17:42;6.03;;;3.05;;
2772;SDS011;1394;47.044;15.744;2022-07-01T14:20:10;4.93;;;3.67;;
2772;SDS011;1394;47.044;15.744;2022-07-01T14:22:38;5.07;;;3.75;;
2772;SDS011;1394;47.044;15.744;2022-07-01T14:25:07;7.20;;;3.30;;
2772;SDS011;1394;47.044;15.744;2022-07-01T14:27:34;6.47;;;3.83;;
2772;SDS011;1394;47.044;15.744;2022-07-01T14:30:02;6.05;;;3.88;;
2772;SDS011;1394;47.044;15.744;2022-07-01T14:32:31;7.53;;;4.10;;
2772;SDS011;1394;47.044;15.744;2022-07-01T14:34:59;5.65;;;3.75;;
2772;SDS011;1394;47.044;15.744;2022-07-01T14:37:27;7.78;;;3.78;;
2772;SDS011;1394;47.044;15.744;2022-07-01T14:39:54;6.03;;;3.42;;
2772;SDS011;1394;47.044;15.744;2022-07-01T14:42:23;8.07;;;3.78;;
2772;SDS011;1394;47.044;15.744;2022-07-01T14:44:51;9.95;;;3.30;;
2772;SDS011;1394;47.044;15.744;2022-07-01T14:47:18;9.63;;;3.67;;
2772;SDS011;1394;47.044;15.744;2022-07-01T14:49:46;5.68;;;3.40;;
2772;SDS011;1394;47.044;15.744;2022-07-01T14:52:15;7.90;;;3.35;;
2772;SDS011;1394;47.044;15.744;2022-07-01T14:54:43;6.32;;;3.75;;
2772;SDS011;1394;47.044;15.744;2022-07-01T14:57:10;6.32;;;3.60;;
2772;SDS011;1394;47.044;15.744;2022-07-01T14:59:39;6.72;;;3.65;;
2772;SDS011;1394;47.044;15.744;2022-07-01T15:02:06;8.18;;;3.65;;
2772;SDS011;1394;47.044;15.744;2022-07-01T15:04:34;6.88;;;3.58;;